Time;durP1;ratioP1;P1;durP2;ratioP2;P2;SDS_P1;SDS_P2;PMS_P1;PMS_P2;Temp;Humidity;BMP_temperature;BMP_pressure;BME280_temperature;BME280_humidity;BME280_pressure;Samples;Min_cycle;Max_cycle;Signal;HPM_P1;HPM_P2
2022/02/01 00:04:54;;;;;;;12.80;2.10;;;;;3.20;101815.00;;;;9631349;30;20721;-80
2022/02/01 00:15:26;;;;;;;8.20;2.00;;;;;3.20;101825.00;;;;9629885;30;20248;-80
2022/02/01 00:36:37;;;;;;;15.23;2.10;;;;;3.60;101812.00;;;;9615848;30;20221;-80
2022/02/01 00:41:47;;;;;;;11.53;2.60;;;;;3.70;101804.00;;;;9629432;30;20272;-81
2022/02/01 00:46:49;;;;;;;11.67;1.83;;;;;3.70;101799.00;;;;9614994;30;20240;-80
2022/02/01 00:51:51;;;;;;;9.90;2.00;;;;;3.80;101810.00;;;;9580862;30;20232;-80
2022/02/01 00:56:53;;;;;;;8.90;1.93;;;;;3.70;101815.00;;;;9601881;30;20220;-80
2022/02/01 01:01:55;;;;;;;11.57;1.97;;;;;3.70;101820.00;;;;9600334;30;20213;-79
2022/02/01 01:06:57;;;;;;;12.03;2.63;;;;;3.70;101846.00;;;;9598786;30;20711;-81
2022/02/01 01:12:00;;;;;;;11.50;2.23;;;;;3.60;101839.00;;;;9628933;30;20208;-79
2022/02/01 01:44:11;;;;;;;10.77;2.50;;;;;3.10;101787.00;;;;9630740;30;20306;-80
2022/02/01 01:54:34;;;;;;;18.63;2.93;;;;;3.10;101808.00;;;;9648434;30;20227;-80
2022/02/01 01:59:36;;;;;;;13.13;2.97;;;;;3.20;101792.00;;;;9604271;30;20260;-80
2022/02/01 02:04:38;;;;;;;13.13;3.10;;;;;3.30;101777.00;;;;9593219;30;20238;-80
2022/02/01 02:09:40;;;;;;;12.23;2.57;;;;;3.30;101769.00;;;;9592955;30;20292;-80
2022/02/01 02:14:45;;;;;;;7.47;2.63;;;;;3.30;101796.00;;;;9594611;30;20222;-80
2022/02/01 02:19:47;;;;;;;16.03;2.93;;;;;3.40;101794.00;;;;9592326;30;20279;-80
2022/02/01 02:24:49;;;;;;;18.17;2.97;;;;;3.40;101796.00;;;;9613224;30;20255;-80
2022/02/01 02:29:51;;;;;;;11.57;2.70;;;;;3.40;101793.00;;;;9580942;30;20731;-81
2022/02/01 02:34:53;;;;;;;12.03;2.67;;;;;3.40;101788.00;;;;9563475;30;20221;-80
2022/02/01 02:40:16;;;;;;;13.33;3.00;;;;;3.40;101783.00;;;;9577816;30;20218;-80
2022/02/01 02:45:18;;;;;;;11.97;2.50;;;;;3.40;101767.00;;;;9589020;30;20233;-80
2022/02/01 02:50:22;;;;;;;11.37;2.30;;;;;3.40;101769.00;;;;9571883;30;20253;-80
2022/02/01 02:55:24;;;;;;;9.67;2.60;;;;;3.40;101774.00;;;;9620339;30;20987;-80
2022/02/01 03:00:26;;;;;;;9.77;2.80;;;;;3.50;101770.00;;;;9606063;30;20244;-80
2022/02/01 03:05:28;;;;;;;9.90;2.40;;;;;3.50;101755.00;;;;9620313;30;20627;-80
2022/02/01 03:10:31;;;;;;;13.20;2.70;;;;;3.50;101748.00;;;;9606016;30;20217;-81
2022/02/01 03:20:34;;;;;;;8.53;2.57;;;;;3.60;101752.00;;;;9604478;30;20311;-80
2022/02/01 03:25:37;;;;;;;12.47;2.83;;;;;3.60;101739.00;;;;9605152;30;20225;-80
2022/02/01 03:30:38;;;;;;;11.70;2.80;;;;;3.60;101730.00;;;;9605754;30;20213;-81
2022/02/01 03:35:40;;;;;;;12.13;3.40;;;;;3.60;101740.00;;;;9619005;30;20216;-81
2022/02/01 03:40:42;;;;;;;18.87;3.37;;;;;3.70;101726.00;;;;9604334;30;20212;-81
2022/02/01 03:45:44;;;;;;;10.50;2.83;;;;;3.70;101701.00;;;;9603665;30;20233;-81
2022/02/01 03:50:46;;;;;;;19.60;3.80;;;;;3.70;101701.00;;;;9631562;30;20912;-81
2022/02/01 03:55:48;;;;;;;14.53;3.43;;;;;3.70;101666.00;;;;9617688;30;20230;-81
2022/02/01 04:00:50;;;;;;;13.37;3.80;;;;;3.70;101661.00;;;;9617792;30;20236;-81
2022/02/01 04:05:52;;;;;;;21.90;4.23;;;;;3.60;101653.00;;;;9603622;30;20244;-80
2022/02/01 04:10:54;;;;;;;12.97;3.50;;;;;3.60;101667.00;;;;9618210;30;20217;-80
2022/02/01 04:15:56;;;;;;;12.47;4.53;;;;;3.60;101679.00;;;;9602559;30;20763;-81
2022/02/01 04:20:58;;;;;;;16.00;4.60;;;;;3.70;101685.00;;;;9617221;30;20224;-80
2022/02/01 04:26:01;;;;;;;16.07;6.10;;;;;3.70;101688.00;;;;9617035;30;20299;-81
2022/02/01 04:31:03;;;;;;;16.17;5.97;;;;;3.80;101704.00;;;;9590754;30;20249;-80
2022/02/01 04:36:05;;;;;;;17.50;5.20;;;;;3.80;101700.00;;;;9581242;30;20241;-81
2022/02/01 04:41:07;;;;;;;16.57;5.30;;;;;3.80;101689.00;;;;9568834;30;20666;-80
2022/02/01 04:46:10;;;;;;;18.23;5.33;;;;;3.80;101687.00;;;;9601227;30;20332;-80
2022/02/01 04:51:12;;;;;;;19.30;6.80;;;;;3.80;101674.00;;;;9616732;30;20328;-81
2022/02/01 04:56:15;;;;;;;19.37;5.87;;;;;3.70;101672.00;;;;9604021;30;20209;-81
2022/02/01 05:01:21;;;;;;;17.40;6.60;;;;;3.70;101658.00;;;;9581197;30;20330;-81
2022/02/01 05:06:25;;;;;;;17.57;6.50;;;;;3.70;101661.00;;;;9616392;30;20236;-81
2022/02/01 05:11:28;;;;;;;22.30;7.60;;;;;3.70;101644.00;;;;9578937;30;20291;-81
2022/02/01 05:16:56;;;;;;;23.13;7.43;;;;;3.70;101649.00;;;;9614838;30;20229;-82
2022/02/01 05:22:06;;;;;;;25.50;6.83;;;;;3.60;101642.00;;;;9615893;30;20205;-82
2022/02/01 05:27:13;;;;;;;22.70;7.87;;;;;3.60;101643.00;;;;9615682;30;20225;-83
2022/02/01 05:32:23;;;;;;;20.93;7.90;;;;;3.50;101633.00;;;;9615305;30;20213;-83
2022/02/01 05:37:25;;;;;;;23.97;7.97;;;;;3.50;101627.00;;;;9588113;30;20205;-83
2022/02/01 05:42:38;;;;;;;17.77;7.33;;;;;3.40;101620.00;;;;9615466;30;20646;-82
2022/02/01 05:47:40;;;;;;;19.67;7.47;;;;;3.50;101618.00;;;;9587136;30;20736;-82
2022/02/01 05:52:42;;;;;;;22.33;8.00;;;;;3.50;101618.00;;;;9628730;30;20591;-82
2022/02/01 05:57:44;;;;;;;26.27;8.67;;;;;3.50;101600.00;;;;9615516;30;20598;-82
2022/02/01 06:02:47;;;;;;;25.33;8.77;;;;;3.50;101572.00;;;;9582152;30;20232;-83
2022/02/01 06:07:49;;;;;;;20.70;7.90;;;;;3.50;101560.00;;;;9629286;30;20236;-82
2022/02/01 06:12:52;;;;;;;17.03;5.37;;;;;3.50;101561.00;;;;9615165;30;20209;-81
2022/02/01 06:17:55;;;;;;;19.17;8.00;;;;;3.50;101531.00;;;;9614733;30;20217;-81
2022/02/01 06:22:57;;;;;;;19.20;8.07;;;;;3.60;101546.00;;;;9615749;30;20212;-81
2022/02/01 06:28:00;;;;;;;17.20;6.87;;;;;3.60;101541.00;;;;9600285;30;20316;-81
2022/02/01 06:33:02;;;;;;;18.63;9.40;;;;;3.60;101538.00;;;;9614414;30;20320;-81
2022/02/01 06:38:04;;;;;;;21.93;9.47;;;;;3.70;101543.00;;;;9601180;30;20671;-81
2022/02/01 06:43:06;;;;;;;20.37;9.53;;;;;3.70;101538.00;;;;9627251;30;20217;-81
2022/02/01 06:48:08;;;;;;;26.77;11.53;;;;;3.70;101528.00;;;;9599471;30;20237;-81
2022/02/01 06:53:19;;;;;;;26.20;10.80;;;;;3.80;101516.00;;;;9627006;30;20224;-81
2022/02/01 06:58:21;;;;;;;20.57;10.73;;;;;3.80;101518.00;;;;9599311;30;20271;-81
2022/02/01 07:03:23;;;;;;;16.97;10.30;;;;;3.90;101509.00;;;;9599225;30;20729;-82
2022/02/01 07:08:26;;;;;;;19.33;10.63;;;;;3.90;101500.00;;;;9600067;30;20233;-81
2022/02/01 07:13:28;;;;;;;21.53;11.43;;;;;4.00;101487.00;;;;9599467;30;20213;-81
2022/02/01 07:18:30;;;;;;;20.20;11.20;;;;;4.00;101501.00;;;;9613403;30;20217;-81
2022/02/01 07:23:33;;;;;;;21.90;11.17;;;;;4.10;101494.00;;;;9598540;30;20225;-80
2022/02/01 07:28:37;;;;;;;16.00;10.83;;;;;4.10;101471.00;;;;9599185;30;20252;-81
2022/02/01 07:33:39;;;;;;;17.57;11.20;;;;;4.20;101457.00;;;;9598729;30;20221;-81
2022/02/01 07:38:41;;;;;;;17.90;11.10;;;;;4.20;101455.00;;;;9617363;30;20227;-81
2022/02/01 07:43:44;;;;;;;21.23;11.17;;;;;4.30;101458.00;;;;9633897;30;20291;-81
2022/02/01 07:48:45;;;;;;;19.97;11.33;;;;;4.40;101452.00;;;;9604858;30;20273;-82
2022/02/01 07:53:47;;;;;;;20.67;11.67;;;;;4.40;101464.00;;;;9618287;30;20221;-81
2022/02/01 07:58:49;;;;;;;18.23;11.57;;;;;4.50;101448.00;;;;9605661;30;20249;-81
2022/02/01 08:03:51;;;;;;;21.23;10.80;;;;;4.50;101435.00;;;;9618220;30;20228;-81
2022/02/01 08:08:53;;;;;;;21.10;11.80;;;;;4.60;101431.00;;;;9604835;30;20328;-81
2022/02/01 08:19:23;;;;;;;18.27;10.30;;;;;4.90;101422.00;;;;9603938;30;20284;-81
2022/02/01 08:24:26;;;;;;;18.50;10.23;;;;;5.10;101407.00;;;;9598065;30;20238;-81
2022/02/01 08:29:28;;;;;;;14.87;9.70;;;;;5.00;101397.00;;;;9570090;30;20702;-81
2022/02/01 08:34:31;;;;;;;19.93;10.60;;;;;5.10;101394.00;;;;9585764;30;20251;-81
2022/02/01 08:39:33;;;;;;;15.10;9.73;;;;;5.10;101388.00;;;;9618913;30;20216;-81
2022/02/01 08:44:35;;;;;;;13.20;7.97;;;;;5.20;101375.00;;;;9602821;30;20224;-80
2022/02/01 08:49:39;;;;;;;12.47;8.70;;;;;5.30;101367.00;;;;9615655;30;20291;-81
2022/02/01 08:54:43;;;;;;;17.17;10.80;;;;;5.50;101359.00;;;;9630525;30;20210;-81
2022/02/01 08:59:46;;;;;;;20.30;10.40;;;;;5.60;101333.00;;;;9602842;30;20481;-81
2022/02/01 09:04:48;;;;;;;12.53;9.03;;;;;5.80;101340.00;;;;9579223;30;20230;-81
2022/02/01 09:09:50;;;;;;;19.13;10.40;;;;;5.80;101337.00;;;;9634747;30;20240;-81
2022/02/01 09:14:53;;;;;;;15.17;9.33;;;;;5.90;101328.00;;;;9607082;30;20218;-81
2022/02/01 09:20:13;;;;;;;9.87;7.67;;;;;6.00;101327.00;;;;9630089;30;20209;-81
2022/02/01 09:25:17;;;;;;;12.60;9.50;;;;;6.00;101312.00;;;;9603603;30;20213;-81
2022/02/01 09:30:22;;;;;;;19.53;9.90;;;;;5.90;101313.00;;;;9583388;30;20765;-81
2022/02/01 09:35:25;;;;;;;16.10;9.17;;;;;6.00;101295.00;;;;9614333;30;20205;-81
2022/02/01 09:40:27;;;;;;;14.50;10.83;;;;;6.00;101279.00;;;;9613654;30;20241;-81
2022/02/01 09:45:33;;;;;;;14.07;9.60;;;;;6.00;101290.00;;;;9613039;30;20309;-81
2022/02/01 09:50:41;;;;;;;16.80;11.60;;;;;6.00;101276.00;;;;9612612;30;20213;-81
2022/02/01 09:55:43;;;;;;;17.17;12.07;;;;;6.00;101262.00;;;;9606027;30;20253;-81
2022/02/01 10:00:52;;;;;;;18.17;11.63;;;;;6.20;101252.00;;;;9573325;30;20217;-81
2022/02/01 10:06:11;;;;;;;21.93;11.53;;;;;6.20;101253.00;;;;9613071;30;20241;-81
2022/02/01 10:11:13;;;;;;;17.10;11.63;;;;;6.30;101257.00;;;;9588983;30;20209;-81
2022/02/01 10:16:28;;;;;;;19.47;13.03;;;;;6.30;101268.00;;;;9617206;30;20239;-81
2022/02/01 10:21:30;;;;;;;18.33;12.10;;;;;6.40;101266.00;;;;9613816;30;20586;-81
2022/02/01 10:26:34;;;;;;;19.83;13.00;;;;;6.50;101254.00;;;;9593409;30;20927;-81
2022/02/01 10:36:42;;;;;;;20.97;14.63;;;;;6.80;101235.00;;;;9611595;30;20272;-81
2022/02/01 10:41:59;;;;;;;20.63;11.93;;;;;6.80;101206.00;;;;9583484;30;20272;-81
2022/02/01 10:47:01;;;;;;;18.40;10.00;;;;;6.80;101216.00;;;;9587803;30;20228;-81
2022/02/01 10:52:23;;;;;;;10.97;8.83;;;;;6.80;101219.00;;;;9622137;30;20201;-81
2022/02/01 10:57:25;;;;;;;11.07;8.83;;;;;6.80;101196.00;;;;9586190;30;20224;-81
2022/02/01 11:02:29;;;;;;;11.57;8.50;;;;;6.90;101192.00;;;;9594278;30;20216;-81
2022/02/01 11:07:31;;;;;;;12.20;8.80;;;;;7.00;101189.00;;;;9587444;30;20229;-82
2022/02/01 11:12:36;;;;;;;13.90;8.27;;;;;7.00;101176.00;;;;9574611;30;20211;-82
2022/02/01 11:17:45;;;;;;;17.30;9.33;;;;;6.90;101169.00;;;;9587930;30;20243;-81
2022/02/01 11:22:53;;;;;;;12.10;9.77;;;;;7.00;101144.00;;;;9607613;30;20268;-81
2022/02/01 11:33:09;;;;;;;11.77;8.30;;;;;7.10;101107.00;;;;9600032;30;20218;-81
2022/02/01 11:38:16;;;;;;;13.43;9.17;;;;;7.20;101089.00;;;;9571931;30;20213;-80
2022/02/01 11:43:25;;;;;;;15.67;9.83;;;;;7.20;101101.00;;;;9580758;30;20753;-78
2022/02/01 11:48:30;;;;;;;16.93;12.20;;;;;7.20;101112.00;;;;9595121;30;20229;-80
2022/02/01 11:53:32;;;;;;;21.37;13.07;;;;;7.20;101108.00;;;;9607015;30;20209;-80
2022/02/01 11:58:37;;;;;;;20.07;12.10;;;;;7.20;101108.00;;;;9603833;30;20220;-80
2022/02/01 12:03:40;;;;;;;18.87;13.37;;;;;7.30;101118.00;;;;9580251;30;20240;-81
2022/02/01 12:08:43;;;;;;;15.47;11.27;;;;;7.40;101096.00;;;;9589561;30;20295;-81
2022/02/01 12:13:45;;;;;;;20.37;10.80;;;;;7.60;101110.00;;;;9588376;30;20287;-80
2022/02/01 12:19:02;;;;;;;18.07;10.37;;;;;7.80;101102.00;;;;9604509;30;20264;-80
2022/02/01 12:24:05;;;;;;;17.80;10.43;;;;;7.80;101105.00;;;;9608901;30;20213;-80
2022/02/01 12:29:11;;;;;;;16.87;10.57;;;;;7.90;101089.00;;;;9599316;30;20270;-82
2022/02/01 12:34:16;;;;;;;20.90;9.93;;;;;8.00;101085.00;;;;9606726;30;20225;-80
2022/02/01 12:39:25;;;;;;;23.43;9.80;;;;;8.00;101087.00;;;;9634165;30;20216;-79
2022/02/01 12:49:34;;;;;;;23.17;9.90;;;;;8.30;101064.00;;;;9580522;30;20233;-78
2022/02/01 12:54:38;;;;;;;19.30;9.50;;;;;8.50;101090.00;;;;9570616;30;20683;-79
2022/02/01 12:59:45;;;;;;;19.50;9.73;;;;;8.60;101076.00;;;;9602733;30;20304;-80
2022/02/01 13:04:56;;;;;;;16.13;8.90;;;;;8.70;101047.00;;;;9599035;30;20244;-80
2022/02/01 13:15:35;;;;;;;16.47;8.87;;;;;8.80;101037.00;;;;9597440;30;20229;-79
2022/02/01 13:20:41;;;;;;;16.53;8.97;;;;;9.10;101037.00;;;;9606010;30;20239;-80
2022/02/01 13:25:44;;;;;;;19.63;8.27;;;;;9.40;101042.00;;;;9626027;30;20213;-81
2022/02/01 13:30:51;;;;;;;18.87;8.07;;;;;9.70;101030.00;;;;9611409;30;20240;-80
2022/02/01 13:35:55;;;;;;;17.57;8.47;;;;;10.10;101006.00;;;;9614558;30;20296;-80
2022/02/01 13:40:57;;;;;;;17.73;7.77;;;;;10.40;100996.00;;;;9630021;30;20275;-80
2022/02/01 13:46:01;;;;;;;16.83;6.90;;;;;10.20;100990.00;;;;9584724;30;20217;-80
2022/02/01 13:51:05;;;;;;;20.13;6.70;;;;;10.00;100986.00;;;;9597909;30;20221;-80
2022/02/01 13:56:11;;;;;;;19.87;6.60;;;;;9.90;100986.00;;;;9608008;30;20217;-80
2022/02/01 14:01:17;;;;;;;14.30;6.10;;;;;9.80;100982.00;;;;9600119;30;20240;-80
2022/02/01 14:06:46;;;;;;;11.97;5.73;;;;;9.80;100982.00;;;;9606336;30;20265;-80
2022/02/01 14:23:34;;;;;;;12.17;5.70;;;;;9.80;100988.00;;;;9625870;30;20320;-80
2022/02/01 14:33:28;;;;;;;14.87;4.93;;;;;10.00;101005.00;;;;9595347;30;20225;-81
2022/02/01 14:38:58;;;;;;;10.23;5.67;;;;;10.00;101019.00;;;;9611363;30;20205;-81
2022/02/01 14:44:25;;;;;;;13.37;5.87;;;;;10.70;100999.00;;;;9609398;30;20208;-80
2022/02/01 14:49:26;;;;;;;8.27;4.77;;;;;10.40;100987.00;;;;9612083;30;20236;-80
2022/02/01 14:54:35;;;;;;;7.93;4.57;;;;;11.20;100985.00;;;;9596516;30;20217;-80
2022/02/01 15:05:16;;;;;;;15.37;5.17;;;;;10.50;100972.00;;;;9604626;30;20246;-81
2022/02/01 15:15:41;;;;;;;13.47;4.97;;;;;10.20;100970.00;;;;9611351;30;20213;-80
2022/02/01 15:20:42;;;;;;;15.37;5.17;;;;;10.20;100990.00;;;;9616055;30;20217;-80
2022/02/01 15:25:44;;;;;;;15.97;6.37;;;;;10.20;100985.00;;;;9611788;30;20209;-80
2022/02/01 15:30:46;;;;;;;10.27;4.73;;;;;10.50;100968.00;;;;9610037;30;20307;-80
2022/02/01 15:35:49;;;;;;;13.03;5.10;;;;;10.40;100978.00;;;;9612697;30;20217;-80
2022/02/01 16:01:44;;;;;;;9.63;4.57;;;;;9.60;101020.00;;;;9614441;30;20205;-79
2022/02/01 16:07:11;;;;;;;11.67;5.00;;;;;9.50;101032.00;;;;9601560;30;20657;-80
2022/02/01 16:12:19;;;;;;;15.47;5.70;;;;;9.50;101031.00;;;;9599263;30;20225;-80
2022/02/01 16:17:22;;;;;;;12.93;5.10;;;;;9.60;101035.00;;;;9613620;30;20243;-80
2022/02/01 16:22:24;;;;;;;12.47;4.83;;;;;9.60;101032.00;;;;9585674;30;20288;-80
2022/02/01 16:27:26;;;;;;;10.57;4.70;;;;;9.50;101039.00;;;;9611443;30;20267;-80
2022/02/01 16:32:28;;;;;;;7.93;4.13;;;;;9.50;101023.00;;;;9608886;30;20590;-80
2022/02/01 16:37:41;;;;;;;9.60;3.77;;;;;9.40;101027.00;;;;9619786;30;20201;-80
2022/02/01 16:42:45;;;;;;;8.93;3.80;;;;;9.40;101024.00;;;;9620562;30;20292;-80
2022/02/01 16:47:54;;;;;;;10.63;5.27;;;;;9.30;101012.00;;;;9592045;30;20615;-80
2022/02/01 16:53:01;;;;;;;7.67;2.93;;;;;9.40;101025.00;;;;9618246;30;20209;-78
2022/02/01 16:58:21;;;;;;;10.07;3.30;;;;;9.50;101032.00;;;;9632769;30;20220;-80
2022/02/01 17:03:34;;;;;;;8.47;3.03;;;;;9.60;101052.00;;;;9581067;30;20239;-80
2022/02/01 17:08:37;;;;;;;6.17;2.53;;;;;9.50;101066.00;;;;9605818;30;20263;-79
2022/02/01 17:14:37;;;;;;;6.40;2.63;;;;;9.60;101066.00;;;;9611555;30;20897;-79
2022/02/01 17:19:17;;;;;;;7.20;2.80;;;;;9.60;101080.00;;;;9596480;30;20229;-79
2022/02/01 17:24:21;;;;;;;4.53;2.20;;;;;9.80;101079.00;;;;9587812;30;20239;-79
2022/02/01 17:29:23;;;;;;;3.23;1.70;;;;;9.90;101063.00;;;;9600368;30;20238;-79
2022/02/01 17:34:25;;;;;;;7.50;2.20;;;;;9.80;101069.00;;;;9621127;30;20201;-79
2022/02/01 17:39:27;;;;;;;7.23;2.40;;;;;9.80;101068.00;;;;9609862;30;20765;-79
2022/02/01 17:44:29;;;;;;;7.27;2.00;;;;;9.80;101081.00;;;;9614760;30;20686;-79
2022/02/01 17:49:37;;;;;;;7.57;2.43;;;;;9.80;101092.00;;;;9615010;30;20272;-79
2022/02/01 17:55:20;;;;;;;5.73;2.00;;;;;9.80;101093.00;;;;9603264;30;20761;-78
2022/02/01 18:00:43;;;;;;;5.50;1.70;;;;;9.90;101082.00;;;;9631254;30;20540;-78
2022/02/01 18:05:45;;;;;;;5.43;1.80;;;;;9.70;101078.00;;;;9614368;30;20241;-78
2022/02/01 18:10:47;;;;;;;6.73;2.40;;;;;9.60;101078.00;;;;9618001;30;20698;-79
2022/02/01 18:15:49;;;;;;;6.80;1.97;;;;;9.40;101095.00;;;;9611791;30;20216;-79
2022/02/01 18:20:55;;;;;;;3.40;1.63;;;;;9.40;101091.00;;;;9613903;30;20228;-79
2022/02/01 18:25:57;;;;;;;5.63;1.80;;;;;9.40;101089.00;;;;9605879;30;20316;-79
2022/02/01 18:31:01;;;;;;;6.40;2.00;;;;;9.40;101089.00;;;;9624691;30;20320;-79
2022/02/01 18:36:07;;;;;;;7.57;2.20;;;;;9.40;101103.00;;;;9592705;30;20213;-80
2022/02/01 18:41:26;;;;;;;9.13;2.40;;;;;9.40;101118.00;;;;9618983;30;20236;-79
2022/02/01 18:46:30;;;;;;;6.90;2.20;;;;;9.40;101134.00;;;;9615262;30;20251;-79
2022/02/01 18:51:46;;;;;;;9.00;2.27;;;;;9.50;101147.00;;;;9604634;30;20216;-79
2022/02/01 18:57:01;;;;;;;7.60;2.47;;;;;9.50;101148.00;;;;9596244;30;20225;-79
2022/02/01 19:08:01;;;;;;;8.33;2.00;;;;;9.60;101139.00;;;;9616380;30;20232;-79
2022/02/01 19:13:05;;;;;;;5.27;2.43;;;;;9.60;101135.00;;;;9603945;30;20236;-80
2022/02/01 19:18:08;;;;;;;5.57;1.73;;;;;9.70;101136.00;;;;9614420;30;20473;-79
2022/02/01 19:23:11;;;;;;;12.30;3.97;;;;;9.70;101155.00;;;;9617868;30;20737;-80
2022/02/01 19:28:19;;;;;;;7.77;2.40;;;;;9.70;101164.00;;;;9613455;30;20241;-80
2022/02/01 19:33:22;;;;;;;5.97;2.57;;;;;9.60;101164.00;;;;9618616;30;20256;-80
2022/02/01 19:38:24;;;;;;;11.43;3.00;;;;;9.50;101159.00;;;;9623901;30;20208;-80
2022/02/01 19:43:33;;;;;;;5.00;2.27;;;;;9.50;101177.00;;;;9623718;30;20225;-80
2022/02/01 19:48:36;;;;;;;7.63;2.70;;;;;9.50;101166.00;;;;9609977;30;20236;-80
2022/02/01 19:53:38;;;;;;;5.73;2.33;;;;;9.50;101156.00;;;;9637483;30;20217;-80
2022/02/01 19:58:45;;;;;;;10.23;2.13;;;;;9.50;101148.00;;;;9585132;30;20240;-80
2022/02/01 20:03:49;;;;;;;11.53;3.20;;;;;9.70;101146.00;;;;9596236;30;20233;-79
2022/02/01 20:08:51;;;;;;;5.60;2.10;;;;;9.80;101152.00;;;;9621985;30;20300;-80
2022/02/01 20:13:53;;;;;;;7.27;2.10;;;;;9.90;101163.00;;;;9623940;30;20260;-79
2022/02/01 20:18:55;;;;;;;8.23;1.90;;;;;10.00;101176.00;;;;9581391;30;20240;-79
2022/02/01 20:24:00;;;;;;;3.57;1.10;;;;;10.00;101164.00;;;;9602603;30;20213;-79
2022/02/01 20:29:07;;;;;;;5.13;2.00;;;;;10.00;101180.00;;;;9616040;30;20236;-79
2022/02/01 20:34:12;;;;;;;6.30;1.70;;;;;9.90;101170.00;;;;9609125;30;20209;-80
2022/02/01 20:39:15;;;;;;;8.70;2.73;;;;;9.80;101162.00;;;;9597006;30;20241;-80
2022/02/01 20:44:18;;;;;;;8.33;2.40;;;;;9.70;101181.00;;;;9601897;30;20217;-80
2022/02/01 20:49:20;;;;;;;9.47;2.90;;;;;9.60;101179.00;;;;9614294;30;20288;-78
2022/02/01 20:54:22;;;;;;;8.53;2.13;;;;;9.60;101173.00;;;;9629542;30;20706;-80
2022/02/01 20:59:24;;;;;;;10.10;2.63;;;;;9.60;101175.00;;;;9619251;30;20213;-80
2022/02/01 21:04:26;;;;;;;8.83;2.73;;;;;9.70;101203.00;;;;9611724;30;20694;-80
2022/02/01 21:09:30;;;;;;;9.83;2.37;;;;;9.70;101217.00;;;;9612607;30;20229;-80
2022/02/01 21:14:32;;;;;;;8.33;2.20;;;;;9.60;101216.00;;;;9603411;30;20667;-80
2022/02/01 21:19:34;;;;;;;5.17;1.73;;;;;9.60;101183.00;;;;9617967;30;20304;-80
2022/02/01 21:24:38;;;;;;;9.30;2.27;;;;;9.70;101213.00;;;;9583638;30;20210;-80
2022/02/01 21:29:40;;;;;;;6.40;2.10;;;;;9.70;101171.00;;;;9632634;30;20255;-80
2022/02/01 21:34:42;;;;;;;11.63;2.40;;;;;9.70;101220.00;;;;9654451;30;20208;-79
2022/02/01 21:39:47;;;;;;;6.50;2.27;;;;;9.80;101213.00;;;;9631868;30;20308;-80
2022/02/01 21:44:49;;;;;;;11.20;2.47;;;;;9.70;101208.00;;;;9620091;30;20213;-80
2022/02/01 21:49:51;;;;;;;5.83;1.90;;;;;9.70;101207.00;;;;9633703;30;20658;-80
2022/02/01 21:54:53;;;;;;;9.33;2.40;;;;;9.80;101188.00;;;;9633265;30;20209;-80
2022/02/01 21:59:55;;;;;;;11.47;2.30;;;;;9.80;101221.00;;;;9633254;30;20251;-80
2022/02/01 22:04:57;;;;;;;10.63;3.43;;;;;9.80;101230.00;;;;9632510;30;20236;-81
2022/02/01 22:09:59;;;;;;;10.07;2.00;;;;;9.70;101206.00;;;;9632173;30;20256;-80
2022/02/01 22:15:02;;;;;;;11.87;2.57;;;;;9.70;101218.00;;;;9604044;30;20206;-80
2022/02/01 22:20:06;;;;;;;7.83;2.27;;;;;9.60;101225.00;;;;9617870;30;20678;-80
2022/02/01 22:25:08;;;;;;;11.50;2.37;;;;;9.60;101208.00;;;;9631792;30;20213;-81
2022/02/01 22:30:10;;;;;;;6.87;2.17;;;;;9.50;101210.00;;;;9617372;30;20578;-80
2022/02/01 22:35:12;;;;;;;7.40;2.70;;;;;9.50;101231.00;;;;9617530;30;20299;-80
2022/02/01 22:40:15;;;;;;;7.70;2.60;;;;;9.50;101241.00;;;;9632910;30;20235;-80
2022/02/01 22:45:18;;;;;;;13.47;2.20;;;;;9.50;101245.00;;;;9631077;30;20256;-80
2022/02/01 22:50:20;;;;;;;8.43;2.00;;;;;9.50;101258.00;;;;9632327;30;20224;-80
2022/02/01 22:55:24;;;;;;;4.53;1.63;;;;;9.50;101240.00;;;;9621678;30;20240;-80
2022/02/01 23:00:35;;;;;;;16.33;3.07;;;;;9.50;101252.00;;;;9616813;30;20236;-80
2022/02/01 23:05:40;;;;;;;7.63;2.00;;;;;9.50;101271.00;;;;9645922;30;20237;-80
2022/02/01 23:10:45;;;;;;;8.50;1.80;;;;;9.40;101278.00;;;;9634405;30;20221;-80
2022/02/01 23:21:13;;;;;;;11.07;2.20;;;;;9.30;101271.00;;;;9625349;30;20201;-79
2022/02/01 23:26:16;;;;;;;6.37;2.30;;;;;9.40;101266.00;;;;9609884;30;20314;-80
2022/02/01 23:31:20;;;;;;;8.97;1.90;;;;;9.40;101285.00;;;;9637943;30;20248;-80
2022/02/01 23:52:11;;;;;;;10.80;2.90;;;;;9.10;101286.00;;;;9649124;30;20229;-81
2022/02/01 23:57:14;;;;;;;12.20;2.90;;;;;9.00;101286.00;;;;9608950;30;20228;-80
